sensor_id;sensor_type;location;lat;lon;timestamp;temperature;humidity
24152;DHT22;12311;50.866;4.332;2023-07-16T00:00:57;17.90;99.90
24152;DHT22;12311;50.866;4.332;2023-07-16T00:03:23;17.90;99.90
24152;DHT22;12311;50.866;4.332;2023-07-16T00:05:51;17.90;99.90
24152;DHT22;12311;50.866;4.332;2023-07-16T00:08:21;17.90;99.90
24152;DHT22;12311;50.866;4.332;2023-07-16T00:10:47;17.80;99.90
24152;DHT22;12311;50.866;4.332;2023-07-16T00:13:12;17.80;99.90
24152;DHT22;12311;50.866;4.332;2023-07-16T00:15:38;17.70;99.90
24152;DHT22;12311;50.866;4.332;2023-07-16T00:18:04;17.70;99.90
24152;DHT22;12311;50.866;4.332;2023-07-16T00:20:31;17.60;99.90
24152;DHT22;12311;50.866;4.332;2023-07-16T00:22:58;17.60;99.90
24152;DHT22;12311;50.866;4.332;2023-07-16T00:25:23;17.60;99.90
24152;DHT22;12311;50.866;4.332;2023-07-16T00:27:49;17.60;99.90
24152;DHT22;12311;50.866;4.332;2023-07-16T00:30:15;17.60;99.90
24152;DHT22;12311;50.866;4.332;2023-07-16T00:32:40;17.60;99.90
24152;DHT22;12311;50.866;4.332;2023-07-16T00:35:06;17.60;99.90
24152;DHT22;12311;50.866;4.332;2023-07-16T00:37:33;17.50;99.90
24152;DHT22;12311;50.866;4.332;2023-07-16T00:39:59;17.50;99.90
24152;DHT22;12311;50.866;4.332;2023-07-16T00:42:25;17.50;99.90
24152;DHT22;12311;50.866;4.332;2023-07-16T00:44:51;17.50;99.90
24152;DHT22;12311;50.866;4.332;2023-07-16T00:47:17;17.50;99.90
24152;DHT22;12311;50.866;4.332;2023-07-16T00:49:42;17.50;99.90
24152;DHT22;12311;50.866;4.332;2023-07-16T00:52:16;17.40;99.90
24152;DHT22;12311;50.866;4.332;2023-07-16T00:54:42;17.30;99.90
24152;DHT22;12311;50.866;4.332;2023-07-16T00:57:08;17.30;99.90
24152;DHT22;12311;50.866;4.332;2023-07-16T00:59:34;17.30;99.90
24152;DHT22;12311;50.866;4.332;2023-07-16T01:01:59;17.20;99.90
24152;DHT22;12311;50.866;4.332;2023-07-16T01:04:25;17.30;99.90
24152;DHT22;12311;50.866;4.332;2023-07-16T01:06:54;17.20;99.90
24152;DHT22;12311;50.866;4.332;2023-07-16T01:09:21;17.20;99.90
24152;DHT22;12311;50.866;4.332;2023-07-16T01:11:48;17.20;99.90
24152;DHT22;12311;50.866;4.332;2023-07-16T01:14:17;17.20;99.90
24152;DHT22;12311;50.866;4.332;2023-07-16T01:16:43;17.20;99.90
24152;DHT22;12311;50.866;4.332;2023-07-16T01:19:09;17.20;99.90
24152;DHT22;12311;50.866;4.332;2023-07-16T01:24:21;17.30;99.90
24152;DHT22;12311;50.866;4.332;2023-07-16T01:27:30;17.30;99.90
24152;DHT22;12311;50.866;4.332;2023-07-16T01:30:04;17.30;99.90
24152;DHT22;12311;50.866;4.332;2023-07-16T01:32:30;17.20;99.90
24152;DHT22;12311;50.866;4.332;2023-07-16T01:34:57;17.20;99.90
24152;DHT22;12311;50.866;4.332;2023-07-16T01:37:23;17.10;99.90
24152;DHT22;12311;50.866;4.332;2023-07-16T01:39:49;17.10;99.90
24152;DHT22;12311;50.866;4.332;2023-07-16T01:42:17;17.20;99.90
24152;DHT22;12311;50.866;4.332;2023-07-16T01:44:42;17.10;99.90
24152;DHT22;12311;50.866;4.332;2023-07-16T01:47:15;17.10;99.90
24152;DHT22;12311;50.866;4.332;2023-07-16T01:49:45;17.10;99.90
24152;DHT22;12311;50.866;4.332;2023-07-16T01:52:12;17.10;99.90
24152;DHT22;12311;50.866;4.332;2023-07-16T01:54:38;17.00;99.90
24152;DHT22;12311;50.866;4.332;2023-07-16T01:57:04;16.90;99.90
24152;DHT22;12311;50.866;4.332;2023-07-16T01:59:29;16.90;99.90
24152;DHT22;12311;50.866;4.332;2023-07-16T02:01:55;16.90;99.90
24152;DHT22;12311;50.866;4.332;2023-07-16T02:04:21;16.90;99.90
24152;DHT22;12311;50.866;4.332;2023-07-16T02:06:46;16.80;99.90
24152;DHT22;12311;50.866;4.332;2023-07-16T02:09:13;16.80;99.90
24152;DHT22;12311;50.866;4.332;2023-07-16T02:11:39;16.70;99.90
24152;DHT22;12311;50.866;4.332;2023-07-16T02:14:05;16.70;99.90
24152;DHT22;12311;50.866;4.332;2023-07-16T02:16:30;16.70;99.90
24152;DHT22;12311;50.866;4.332;2023-07-16T02:18:56;16.70;99.90
24152;DHT22;12311;50.866;4.332;2023-07-16T02:21:22;16.70;99.90
24152;DHT22;12311;50.866;4.332;2023-07-16T02:23:47;16.70;99.90
24152;DHT22;12311;50.866;4.332;2023-07-16T02:26:13;16.60;99.90
24152;DHT22;12311;50.866;4.332;2023-07-16T02:28:39;16.60;99.90
24152;DHT22;12311;50.866;4.332;2023-07-16T02:31:04;16.60;99.90
24152;DHT22;12311;50.866;4.332;2023-07-16T02:33:30;16.50;99.90
24152;DHT22;12311;50.866;4.332;2023-07-16T02:35:56;16.60;99.90
24152;DHT22;12311;50.866;4.332;2023-07-16T02:38:21;16.50;99.90
24152;DHT22;12311;50.866;4.332;2023-07-16T02:40:48;16.50;99.90
24152;DHT22;12311;50.866;4.332;2023-07-16T02:43:14;16.50;99.90
24152;DHT22;12311;50.866;4.332;2023-07-16T02:45:40;16.50;99.90
24152;DHT22;12311;50.866;4.332;2023-07-16T02:48:06;16.50;99.90
24152;DHT22;12311;50.866;4.332;2023-07-16T02:50:36;16.60;99.90
24152;DHT22;12311;50.866;4.332;2023-07-16T02:53:04;16.60;99.90
24152;DHT22;12311;50.866;4.332;2023-07-16T02:55:30;16.70;99.90
24152;DHT22;12311;50.866;4.332;2023-07-16T02:57:56;16.70;99.90
24152;DHT22;12311;50.866;4.332;2023-07-16T03:00:22;16.60;99.90
24152;DHT22;12311;50.866;4.332;2023-07-16T03:02:48;16.60;99.90
24152;DHT22;12311;50.866;4.332;2023-07-16T03:05:16;16.60;99.90
24152;DHT22;12311;50.866;4.332;2023-07-16T03:07:42;16.60;99.90
24152;DHT22;12311;50.866;4.332;2023-07-16T03:10:08;16.60;99.90
24152;DHT22;12311;50.866;4.332;2023-07-16T03:12:34;16.60;99.90
24152;DHT22;12311;50.866;4.332;2023-07-16T03:15:00;16.60;99.90
24152;DHT22;12311;50.866;4.332;2023-07-16T03:17:25;16.50;99.90
24152;DHT22;12311;50.866;4.332;2023-07-16T03:19:51;16.50;99.90
24152;DHT22;12311;50.866;4.332;2023-07-16T03:22:17;16.50;99.90
24152;DHT22;12311;50.866;4.332;2023-07-16T03:24:42;16.40;99.90
24152;DHT22;12311;50.866;4.332;2023-07-16T03:27:08;16.40;99.90
24152;DHT22;12311;50.866;4.332;2023-07-16T03:29:34;16.50;99.90
24152;DHT22;12311;50.866;4.332;2023-07-16T03:31:59;16.40;99.90
24152;DHT22;12311;50.866;4.332;2023-07-16T03:34:25;16.40;99.90
24152;DHT22;12311;50.866;4.332;2023-07-16T03:36:51;16.40;99.90
24152;DHT22;12311;50.866;4.332;2023-07-16T03:39:17;16.50;99.90
24152;DHT22;12311;50.866;4.332;2023-07-16T03:41:42;16.40;99.90
24152;DHT22;12311;50.866;4.332;2023-07-16T03:44:08;16.40;99.90
24152;DHT22;12311;50.866;4.332;2023-07-16T03:46:34;16.40;99.90
24152;DHT22;12311;50.866;4.332;2023-07-16T03:49:00;16.40;99.90
24152;DHT22;12311;50.866;4.332;2023-07-16T03:51:25;16.40;99.90
24152;DHT22;12311;50.866;4.332;2023-07-16T03:53:51;16.30;99.90
24152;DHT22;12311;50.866;4.332;2023-07-16T03:56:17;16.30;99.90
24152;DHT22;12311;50.866;4.332;2023-07-16T03:58:42;16.40;99.90
24152;DHT22;12311;50.866;4.332;2023-07-16T04:01:09;16.30;99.90
24152;DHT22;12311;50.866;4.332;2023-07-16T04:03:35;16.30;99.90
24152;DHT22;12311;50.866;4.332;2023-07-16T04:06:05;16.30;99.90
24152;DHT22;12311;50.866;4.332;2023-07-16T04:08:31;16.30;99.90
24152;DHT22;12311;50.866;4.332;2023-07-16T04:10:56;16.20;99.90
24152;DHT22;12311;50.866;4.332;2023-07-16T04:13:22;16.20;99.90
24152;DHT22;12311;50.866;4.332;2023-07-16T04:15:48;16.20;99.90
24152;DHT22;12311;50.866;4.332;2023-07-16T04:18:14;16.20;99.90
24152;DHT22;12311;50.866;4.332;2023-07-16T04:20:39;16.20;99.90
24152;DHT22;12311;50.866;4.332;2023-07-16T04:23:05;16.20;99.90
24152;DHT22;12311;50.866;4.332;2023-07-16T04:25:31;16.20;99.90
24152;DHT22;12311;50.866;4.332;2023-07-16T04:27:57;16.20;99.90
24152;DHT22;12311;50.866;4.332;2023-07-16T04:30:22;16.20;99.90
24152;DHT22;12311;50.866;4.332;2023-07-16T04:32:48;16.20;99.90
24152;DHT22;12311;50.866;4.332;2023-07-16T04:35:14;16.30;99.90
24152;DHT22;12311;50.866;4.332;2023-07-16T04:37:39;16.20;99.90
24152;DHT22;12311;50.866;4.332;2023-07-16T04:40:06;16.10;99.90
24152;DHT22;12311;50.866;4.332;2023-07-16T04:42:32;16.20;99.90
24152;DHT22;12311;50.866;4.332;2023-07-16T04:44:57;16.10;99.90
24152;DHT22;12311;50.866;4.332;2023-07-16T04:47:23;16.10;99.90
24152;DHT22;12311;50.866;4.332;2023-07-16T04:49:48;16.00;99.90
24152;DHT22;12311;50.866;4.332;2023-07-16T04:52:14;16.00;99.90
24152;DHT22;12311;50.866;4.332;2023-07-16T04:54:40;16.00;99.90
24152;DHT22;12311;50.866;4.332;2023-07-16T04:57:07;16.10;99.90
24152;DHT22;12311;50.866;4.332;2023-07-16T04:59:33;16.10;99.90
24152;DHT22;12311;50.866;4.332;2023-07-16T05:01:59;16.10;99.90
24152;DHT22;12311;50.866;4.332;2023-07-16T05:04:25;16.10;99.90
24152;DHT22;12311;50.866;4.332;2023-07-16T05:06:51;16.10;99.90
24152;DHT22;12311;50.866;4.332;2023-07-16T05:09:17;16.20;99.90
24152;DHT22;12311;50.866;4.332;2023-07-16T05:11:43;16.20;99.90
24152;DHT22;12311;50.866;4.332;2023-07-16T05:14:08;16.30;99.90
24152;DHT22;12311;50.866;4.332;2023-07-16T05:16:34;16.30;99.90
24152;DHT22;12311;50.866;4.332;2023-07-16T05:18:59;16.40;99.90
24152;DHT22;12311;50.866;4.332;2023-07-16T05:21:25;16.40;99.90
24152;DHT22;12311;50.866;4.332;2023-07-16T05:23:51;16.40;99.90
24152;DHT22;12311;50.866;4.332;2023-07-16T05:26:16;16.50;99.90
24152;DHT22;12311;50.866;4.332;2023-07-16T05:28:42;16.50;99.90
24152;DHT22;12311;50.866;4.332;2023-07-16T05:31:08;16.60;99.90
24152;DHT22;12311;50.866;4.332;2023-07-16T05:33:33;16.60;99.90
24152;DHT22;12311;50.866;4.332;2023-07-16T05:35:59;16.50;99.90
24152;DHT22;12311;50.866;4.332;2023-07-16T05:38:25;16.60;99.90
24152;DHT22;12311;50.866;4.332;2023-07-16T05:40:50;16.60;99.90
24152;DHT22;12311;50.866;4.332;2023-07-16T05:43:16;16.70;99.90
24152;DHT22;12311;50.866;4.332;2023-07-16T05:45:42;16.70;99.90
24152;DHT22;12311;50.866;4.332;2023-07-16T05:48:07;16.70;99.90
24152;DHT22;12311;50.866;4.332;2023-07-16T05:50:33;16.80;99.90
24152;DHT22;12311;50.866;4.332;2023-07-16T05:52:59;16.80;99.90
24152;DHT22;12311;50.866;4.332;2023-07-16T05:55:24;16.80;99.90
24152;DHT22;12311;50.866;4.332;2023-07-16T05:57:50;16.80;99.90
24152;DHT22;12311;50.866;4.332;2023-07-16T06:00:16;16.90;99.90
24152;DHT22;12311;50.866;4.332;2023-07-16T06:02:42;16.80;99.90
24152;DHT22;12311;50.866;4.332;2023-07-16T06:05:08;16.90;99.90
24152;DHT22;12311;50.866;4.332;2023-07-16T06:07:34;16.90;99.90
24152;DHT22;12311;50.866;4.332;2023-07-16T06:10:00;17.00;99.90
24152;DHT22;12311;50.866;4.332;2023-07-16T06:12:25;17.00;99.90
24152;DHT22;12311;50.866;4.332;2023-07-16T06:14:51;17.00;99.90
24152;DHT22;12311;50.866;4.332;2023-07-16T06:17:17;17.10;99.90
24152;DHT22;12311;50.866;4.332;2023-07-16T06:19:42;17.10;99.90
24152;DHT22;12311;50.866;4.332;2023-07-16T06:22:08;17.20;99.90
24152;DHT22;12311;50.866;4.332;2023-07-16T06:24:36;17.30;99.90
24152;DHT22;12311;50.866;4.332;2023-07-16T06:27:02;17.30;99.90
24152;DHT22;12311;50.866;4.332;2023-07-16T06:29:28;17.30;99.90
24152;DHT22;12311;50.866;4.332;2023-07-16T06:31:58;17.20;99.90
24152;DHT22;12311;50.866;4.332;2023-07-16T06:34:24;17.30;99.90
24152;DHT22;12311;50.866;4.332;2023-07-16T06:36:50;17.30;99.90
24152;DHT22;12311;50.866;4.332;2023-07-16T06:39:16;17.40;99.90
24152;DHT22;12311;50.866;4.332;2023-07-16T06:41:42;17.40;99.90
24152;DHT22;12311;50.866;4.332;2023-07-16T06:44:08;17.50;99.90
24152;DHT22;12311;50.866;4.332;2023-07-16T06:46:33;17.60;99.90
24152;DHT22;12311;50.866;4.332;2023-07-16T06:48:59;17.60;99.90
24152;DHT22;12311;50.866;4.332;2023-07-16T06:51:25;17.70;99.90
24152;DHT22;12311;50.866;4.332;2023-07-16T06:53:50;17.80;99.90
24152;DHT22;12311;50.866;4.332;2023-07-16T06:56:16;17.80;99.90
24152;DHT22;12311;50.866;4.332;2023-07-16T06:58:42;17.80;99.90
24152;DHT22;12311;50.866;4.332;2023-07-16T07:01:07;17.80;99.90
24152;DHT22;12311;50.866;4.332;2023-07-16T07:03:33;17.90;99.90
24152;DHT22;12311;50.866;4.332;2023-07-16T07:06:02;17.80;99.90
24152;DHT22;12311;50.866;4.332;2023-07-16T07:08:29;17.90;99.90
24152;DHT22;12311;50.866;4.332;2023-07-16T07:10:55;18.00;99.90
24152;DHT22;12311;50.866;4.332;2023-07-16T07:13:21;18.00;99.90
24152;DHT22;12311;50.866;4.332;2023-07-16T07:15:47;18.00;99.90
24152;DHT22;12311;50.866;4.332;2023-07-16T07:18:12;18.00;99.90
24152;DHT22;12311;50.866;4.332;2023-07-16T07:20:39;18.10;99.90
24152;DHT22;12311;50.866;4.332;2023-07-16T07:23:05;18.20;99.90
24152;DHT22;12311;50.866;4.332;2023-07-16T07:25:31;18.20;99.90
24152;DHT22;12311;50.866;4.332;2023-07-16T07:27:57;18.30;99.90
24152;DHT22;12311;50.866;4.332;2023-07-16T07:30:22;18.20;99.90
24152;DHT22;12311;50.866;4.332;2023-07-16T07:32:48;18.30;99.90
24152;DHT22;12311;50.866;4.332;2023-07-16T07:35:14;18.30;99.90
24152;DHT22;12311;50.866;4.332;2023-07-16T07:37:39;18.30;99.90
24152;DHT22;12311;50.866;4.332;2023-07-16T07:40:05;18.40;99.90
24152;DHT22;12311;50.866;4.332;2023-07-16T07:42:33;18.50;99.90
24152;DHT22;12311;50.866;4.332;2023-07-16T07:44:58;18.50;99.90
24152;DHT22;12311;50.866;4.332;2023-07-16T07:47:24;18.50;99.90
24152;DHT22;12311;50.866;4.332;2023-07-16T07:49:52;18.50;99.90
24152;DHT22;12311;50.866;4.332;2023-07-16T07:52:17;18.60;99.90
24152;DHT22;12311;50.866;4.332;2023-07-16T07:54:43;18.60;99.90
24152;DHT22;12311;50.866;4.332;2023-07-16T07:57:08;18.60;99.90
24152;DHT22;12311;50.866;4.332;2023-07-16T07:59:34;18.80;99.90
24152;DHT22;12311;50.866;4.332;2023-07-16T08:02:00;19.00;99.90
24152;DHT22;12311;50.866;4.332;2023-07-16T08:04:28;19.00;99.90
24152;DHT22;12311;50.866;4.332;2023-07-16T08:06:54;19.00;99.90
24152;DHT22;12311;50.866;4.332;2023-07-16T08:09:20;19.10;99.90
24152;DHT22;12311;50.866;4.332;2023-07-16T08:11:46;19.10;99.90
24152;DHT22;12311;50.866;4.332;2023-07-16T08:14:11;19.00;99.90
24152;DHT22;12311;50.866;4.332;2023-07-16T08:16:37;19.00;99.90
24152;DHT22;12311;50.866;4.332;2023-07-16T08:19:03;19.10;99.90
24152;DHT22;12311;50.866;4.332;2023-07-16T08:21:28;19.20;99.90
24152;DHT22;12311;50.866;4.332;2023-07-16T08:23:54;19.30;99.90
24152;DHT22;12311;50.866;4.332;2023-07-16T08:26:20;19.40;99.90
24152;DHT22;12311;50.866;4.332;2023-07-16T08:28:46;19.60;99.90
24152;DHT22;12311;50.866;4.332;2023-07-16T08:31:11;19.60;99.90
24152;DHT22;12311;50.866;4.332;2023-07-16T08:33:38;19.50;99.90
24152;DHT22;12311;50.866;4.332;2023-07-16T08:36:04;19.60;99.90
24152;DHT22;12311;50.866;4.332;2023-07-16T08:38:30;19.70;99.90
24152;DHT22;12311;50.866;4.332;2023-07-16T08:40:56;19.80;99.90
24152;DHT22;12311;50.866;4.332;2023-07-16T08:43:22;20.10;99.90
24152;DHT22;12311;50.866;4.332;2023-07-16T08:45:49;20.20;99.90
24152;DHT22;12311;50.866;4.332;2023-07-16T08:48:16;20.10;99.90
24152;DHT22;12311;50.866;4.332;2023-07-16T08:50:49;20.20;99.90
24152;DHT22;12311;50.866;4.332;2023-07-16T08:53:15;20.20;99.90
24152;DHT22;12311;50.866;4.332;2023-07-16T08:55:46;20.30;99.90
24152;DHT22;12311;50.866;4.332;2023-07-16T08:58:14;20.40;99.90
24152;DHT22;12311;50.866;4.332;2023-07-16T09:00:43;20.60;99.90
24152;DHT22;12311;50.866;4.332;2023-07-16T09:03:13;20.50;99.90
24152;DHT22;12311;50.866;4.332;2023-07-16T09:05:39;20.60;99.90
24152;DHT22;12311;50.866;4.332;2023-07-16T09:08:06;20.40;99.90
24152;DHT22;12311;50.866;4.332;2023-07-16T09:10:32;20.20;99.90
24152;DHT22;12311;50.866;4.332;2023-07-16T09:12:58;20.20;99.90
24152;DHT22;12311;50.866;4.332;2023-07-16T09:15:26;20.60;99.90
24152;DHT22;12311;50.866;4.332;2023-07-16T09:17:54;20.80;99.90
24152;DHT22;12311;50.866;4.332;2023-07-16T09:20:20;20.80;99.90
24152;DHT22;12311;50.866;4.332;2023-07-16T09:22:49;20.60;99.90
24152;DHT22;12311;50.866;4.332;2023-07-16T09:25:14;20.70;99.90
24152;DHT22;12311;50.866;4.332;2023-07-16T09:27:40;20.70;99.90
24152;DHT22;12311;50.866;4.332;2023-07-16T09:30:06;20.90;99.90
24152;DHT22;12311;50.866;4.332;2023-07-16T09:32:39;21.00;99.90
24152;DHT22;12311;50.866;4.332;2023-07-16T09:35:23;20.90;99.90
24152;DHT22;12311;50.866;4.332;2023-07-16T09:37:49;20.90;99.90
24152;DHT22;12311;50.866;4.332;2023-07-16T09:40:16;20.60;99.90
24152;DHT22;12311;50.866;4.332;2023-07-16T09:42:43;20.40;99.90
24152;DHT22;12311;50.866;4.332;2023-07-16T09:45:17;20.60;99.90
24152;DHT22;12311;50.866;4.332;2023-07-16T09:47:43;20.70;99.90
24152;DHT22;12311;50.866;4.332;2023-07-16T09:50:10;20.60;99.90
24152;DHT22;12311;50.866;4.332;2023-07-16T09:52:37;20.30;99.90
24152;DHT22;12311;50.866;4.332;2023-07-16T09:55:04;20.20;99.90
24152;DHT22;12311;50.866;4.332;2023-07-16T09:57:36;20.30;99.90
24152;DHT22;12311;50.866;4.332;2023-07-16T10:00:06;20.40;99.90
24152;DHT22;12311;50.866;4.332;2023-07-16T10:02:34;20.40;99.90
24152;DHT22;12311;50.866;4.332;2023-07-16T10:05:14;20.30;99.90
24152;DHT22;12311;50.866;4.332;2023-07-16T10:07:41;20.10;99.90
24152;DHT22;12311;50.866;4.332;2023-07-16T10:10:08;20.00;99.90
24152;DHT22;12311;50.866;4.332;2023-07-16T10:12:36;20.10;99.90
24152;DHT22;12311;50.866;4.332;2023-07-16T10:15:02;20.10;99.90
24152;DHT22;12311;50.866;4.332;2023-07-16T10:17:31;20.10;99.90
24152;DHT22;12311;50.866;4.332;2023-07-16T10:20:08;20.20;99.90
24152;DHT22;12311;50.866;4.332;2023-07-16T10:25:10;20.10;99.90
24152;DHT22;12311;50.866;4.332;2023-07-16T10:27:36;20.20;99.90
24152;DHT22;12311;50.866;4.332;2023-07-16T10:30:03;20.40;99.90
24152;DHT22;12311;50.866;4.332;2023-07-16T10:32:30;20.80;99.90
24152;DHT22;12311;50.866;4.332;2023-07-16T10:34:57;20.90;99.90
24152;DHT22;12311;50.866;4.332;2023-07-16T10:37:23;20.80;99.90
24152;DHT22;12311;50.866;4.332;2023-07-16T10:39:51;20.80;99.90
24152;DHT22;12311;50.866;4.332;2023-07-16T10:42:17;20.90;99.90
24152;DHT22;12311;50.866;4.332;2023-07-16T10:44:44;21.10;99.90
24152;DHT22;12311;50.866;4.332;2023-07-16T10:47:25;21.20;99.90
24152;DHT22;12311;50.866;4.332;2023-07-16T10:49:51;21.30;99.90
24152;DHT22;12311;50.866;4.332;2023-07-16T10:52:23;21.20;99.90
24152;DHT22;12311;50.866;4.332;2023-07-16T10:54:50;21.30;99.90
24152;DHT22;12311;50.866;4.332;2023-07-16T10:57:23;21.50;99.90
24152;DHT22;12311;50.866;4.332;2023-07-16T10:59:50;21.60;99.90
24152;DHT22;12311;50.866;4.332;2023-07-16T11:02:17;21.50;99.90
24152;DHT22;12311;50.866;4.332;2023-07-16T11:04:45;21.20;99.90
24152;DHT22;12311;50.866;4.332;2023-07-16T11:07:12;21.00;99.90
24152;DHT22;12311;50.866;4.332;2023-07-16T11:09:53;21.20;99.90
24152;DHT22;12311;50.866;4.332;2023-07-16T11:12:21;21.10;99.90
24152;DHT22;12311;50.866;4.332;2023-07-16T11:14:50;21.10;99.90
24152;DHT22;12311;50.866;4.332;2023-07-16T11:17:16;21.10;99.90
24152;DHT22;12311;50.866;4.332;2023-07-16T11:19:47;21.00;99.90
24152;DHT22;12311;50.866;4.332;2023-07-16T11:22:14;20.90;99.90
24152;DHT22;12311;50.866;4.332;2023-07-16T11:24:50;21.20;99.90
24152;DHT22;12311;50.866;4.332;2023-07-16T11:27:27;21.70;99.90
24152;DHT22;12311;50.866;4.332;2023-07-16T11:29:59;22.30;99.90
24152;DHT22;12311;50.866;4.332;2023-07-16T11:35:03;22.90;99.90
24152;DHT22;12311;50.866;4.332;2023-07-16T11:37:30;23.20;99.90
24152;DHT22;12311;50.866;4.332;2023-07-16T11:40:08;23.50;99.90
24152;DHT22;12311;50.866;4.332;2023-07-16T11:42:40;23.40;99.90
24152;DHT22;12311;50.866;4.332;2023-07-16T11:45:18;22.70;99.90
24152;DHT22;12311;50.866;4.332;2023-07-16T11:47:44;22.70;99.90
24152;DHT22;12311;50.866;4.332;2023-07-16T11:50:10;22.60;99.90
24152;DHT22;12311;50.866;4.332;2023-07-16T11:52:36;22.50;99.90
24152;DHT22;12311;50.866;4.332;2023-07-16T11:55:04;22.50;99.90
24152;DHT22;12311;50.866;4.332;2023-07-16T11:57:30;23.00;99.90
24152;DHT22;12311;50.866;4.332;2023-07-16T11:59:56;23.40;99.90
24152;DHT22;12311;50.866;4.332;2023-07-16T12:02:22;23.40;99.90
24152;DHT22;12311;50.866;4.332;2023-07-16T12:04:48;23.50;99.90
24152;DHT22;12311;50.866;4.332;2023-07-16T12:07:15;24.10;99.90
24152;DHT22;12311;50.866;4.332;2023-07-16T12:09:40;24.40;99.90
24152;DHT22;12311;50.866;4.332;2023-07-16T12:12:06;24.40;99.90
24152;DHT22;12311;50.866;4.332;2023-07-16T12:14:32;23.90;99.90
24152;DHT22;12311;50.866;4.332;2023-07-16T12:16:58;23.20;99.90
24152;DHT22;12311;50.866;4.332;2023-07-16T12:19:24;23.10;99.90
24152;DHT22;12311;50.866;4.332;2023-07-16T12:21:50;23.40;99.90
24152;DHT22;12311;50.866;4.332;2023-07-16T12:24:16;22.90;99.90
24152;DHT22;12311;50.866;4.332;2023-07-16T12:26:42;22.70;99.90
24152;DHT22;12311;50.866;4.332;2023-07-16T12:29:08;22.50;99.90
24152;DHT22;12311;50.866;4.332;2023-07-16T12:31:34;22.70;99.90
24152;DHT22;12311;50.866;4.332;2023-07-16T12:34:00;22.50;99.90
24152;DHT22;12311;50.866;4.332;2023-07-16T12:36:30;21.60;99.90
24152;DHT22;12311;50.866;4.332;2023-07-16T12:38:55;21.00;99.90
24152;DHT22;12311;50.866;4.332;2023-07-16T12:41:21;20.90;99.90
24152;DHT22;12311;50.866;4.332;2023-07-16T12:43:47;21.30;99.90
24152;DHT22;12311;50.866;4.332;2023-07-16T12:46:13;21.80;99.90
24152;DHT22;12311;50.866;4.332;2023-07-16T12:48:39;22.40;99.90
24152;DHT22;12311;50.866;4.332;2023-07-16T12:51:04;23.40;99.90
24152;DHT22;12311;50.866;4.332;2023-07-16T12:53:30;24.50;99.90
24152;DHT22;12311;50.866;4.332;2023-07-16T12:55:56;25.20;99.90
24152;DHT22;12311;50.866;4.332;2023-07-16T12:58:22;25.20;99.90
24152;DHT22;12311;50.866;4.332;2023-07-16T13:00:48;25.20;99.90
24152;DHT22;12311;50.866;4.332;2023-07-16T13:03:13;25.00;99.90
24152;DHT22;12311;50.866;4.332;2023-07-16T13:05:42;24.30;99.90
24152;DHT22;12311;50.866;4.332;2023-07-16T13:08:09;23.60;99.90
24152;DHT22;12311;50.866;4.332;2023-07-16T13:10:35;23.70;99.90
24152;DHT22;12311;50.866;4.332;2023-07-16T13:13:01;23.40;99.90
24152;DHT22;12311;50.866;4.332;2023-07-16T13:15:29;23.80;99.90
24152;DHT22;12311;50.866;4.332;2023-07-16T13:17:54;24.00;99.90
24152;DHT22;12311;50.866;4.332;2023-07-16T13:20:21;24.10;99.90
24152;DHT22;12311;50.866;4.332;2023-07-16T13:22:47;24.10;99.90
24152;DHT22;12311;50.866;4.332;2023-07-16T13:25:13;24.00;99.90
24152;DHT22;12311;50.866;4.332;2023-07-16T13:27:39;23.80;99.90
24152;DHT22;12311;50.866;4.332;2023-07-16T13:30:06;23.70;99.90
24152;DHT22;12311;50.866;4.332;2023-07-16T13:32:31;23.60;99.90
24152;DHT22;12311;50.866;4.332;2023-07-16T13:34:57;23.30;99.90
24152;DHT22;12311;50.866;4.332;2023-07-16T13:37:23;23.10;99.90
24152;DHT22;12311;50.866;4.332;2023-07-16T13:39:50;22.80;99.90
24152;DHT22;12311;50.866;4.332;2023-07-16T13:42:15;22.90;99.90
24152;DHT22;12311;50.866;4.332;2023-07-16T13:44:41;23.20;99.90
24152;DHT22;12311;50.866;4.332;2023-07-16T13:47:07;23.40;99.90
24152;DHT22;12311;50.866;4.332;2023-07-16T13:49:32;23.20;99.90
24152;DHT22;12311;50.866;4.332;2023-07-16T13:51:58;23.20;99.90
24152;DHT22;12311;50.866;4.332;2023-07-16T13:54:24;22.90;99.90
24152;DHT22;12311;50.866;4.332;2023-07-16T13:56:49;23.00;99.90
24152;DHT22;12311;50.866;4.332;2023-07-16T13:59:15;22.90;99.90
24152;DHT22;12311;50.866;4.332;2023-07-16T14:01:41;23.10;99.90
24152;DHT22;12311;50.866;4.332;2023-07-16T14:04:07;23.30;99.90
24152;DHT22;12311;50.866;4.332;2023-07-16T14:06:33;24.00;99.90
24152;DHT22;12311;50.866;4.332;2023-07-16T14:08:59;24.30;99.90
24152;DHT22;12311;50.866;4.332;2023-07-16T14:11:25;24.60;99.90
24152;DHT22;12311;50.866;4.332;2023-07-16T14:13:51;24.60;99.90
24152;DHT22;12311;50.866;4.332;2023-07-16T14:16:21;24.50;99.90
24152;DHT22;12311;50.866;4.332;2023-07-16T14:18:51;24.50;99.90
24152;DHT22;12311;50.866;4.332;2023-07-16T14:21:18;24.40;99.90
24152;DHT22;12311;50.866;4.332;2023-07-16T14:23:43;24.60;99.90
24152;DHT22;12311;50.866;4.332;2023-07-16T14:26:09;24.50;99.90
24152;DHT22;12311;50.866;4.332;2023-07-16T14:28:35;24.20;99.90
24152;DHT22;12311;50.866;4.332;2023-07-16T14:31:00;24.00;99.90
24152;DHT22;12311;50.866;4.332;2023-07-16T14:33:26;24.20;99.90
24152;DHT22;12311;50.866;4.332;2023-07-16T14:35:53;24.10;99.90
24152;DHT22;12311;50.866;4.332;2023-07-16T14:38:18;24.00;99.90
24152;DHT22;12311;50.866;4.332;2023-07-16T14:40:44;24.00;99.90
24152;DHT22;12311;50.866;4.332;2023-07-16T14:43:10;24.00;99.90
24152;DHT22;12311;50.866;4.332;2023-07-16T14:45:35;24.10;99.90
24152;DHT22;12311;50.866;4.332;2023-07-16T14:48:01;24.30;99.90
24152;DHT22;12311;50.866;4.332;2023-07-16T14:50:27;24.20;99.90
24152;DHT22;12311;50.866;4.332;2023-07-16T14:52:53;24.50;99.90
24152;DHT22;12311;50.866;4.332;2023-07-16T14:55:19;24.70;99.90
24152;DHT22;12311;50.866;4.332;2023-07-16T14:57:45;24.80;99.90
24152;DHT22;12311;50.866;4.332;2023-07-16T15:00:11;25.00;99.90
24152;DHT22;12311;50.866;4.332;2023-07-16T15:02:39;24.60;99.90
24152;DHT22;12311;50.866;4.332;2023-07-16T15:05:04;24.50;99.90
24152;DHT22;12311;50.866;4.332;2023-07-16T15:07:30;24.30;99.90
24152;DHT22;12311;50.866;4.332;2023-07-16T15:09:56;24.40;99.90
24152;DHT22;12311;50.866;4.332;2023-07-16T15:12:22;24.50;99.90
24152;DHT22;12311;50.866;4.332;2023-07-16T15:14:48;24.50;99.90
24152;DHT22;12311;50.866;4.332;2023-07-16T15:17:14;24.60;99.90
24152;DHT22;12311;50.866;4.332;2023-07-16T15:19:40;24.60;99.90
24152;DHT22;12311;50.866;4.332;2023-07-16T15:22:08;24.60;99.90
24152;DHT22;12311;50.866;4.332;2023-07-16T15:24:35;24.70;99.90
24152;DHT22;12311;50.866;4.332;2023-07-16T15:27:01;24.70;99.90
24152;DHT22;12311;50.866;4.332;2023-07-16T15:29:26;24.60;99.90
24152;DHT22;12311;50.866;4.332;2023-07-16T15:31:52;25.10;99.90
24152;DHT22;12311;50.866;4.332;2023-07-16T15:34:18;25.00;99.90